createdAt,value
2024-05-09T00:00:45.310Z,0
2024-05-09T00:01:44.483Z,0
2024-05-09T00:02:44.436Z,0
2024-05-09T00:03:59.493Z,0
2024-05-09T00:04:44.564Z,0
2024-05-09T00:05:44.765Z,0
2024-05-09T00:06:44.629Z,0
2024-05-09T00:07:44.480Z,0
2024-05-09T00:08:44.498Z,0
2024-05-09T00:09:44.428Z,0
2024-05-09T00:10:44.567Z,0
2024-05-09T00:11:44.523Z,0
2024-05-09T00:12:44.444Z,0
2024-05-09T00:13:44.478Z,0
2024-05-09T00:14:53.956Z,0
2024-05-09T00:15:44.907Z,0
2024-05-09T00:16:44.473Z,0
2024-05-09T00:17:44.751Z,0
2024-05-09T00:18:44.924Z,0
2024-05-09T00:19:44.558Z,0
2024-05-09T00:20:44.571Z,0
2024-05-09T00:21:44.444Z,0
2024-05-09T00:22:44.619Z,0
2024-05-09T00:23:44.444Z,0
2024-05-09T00:24:44.464Z,0
2024-05-09T00:25:44.787Z,0
2024-05-09T00:26:43.837Z,0
2024-05-09T00:27:43.737Z,0
2024-05-09T00:28:45.135Z,0
2024-05-09T00:29:44.939Z,0
2024-05-09T00:30:45.224Z,0
2024-05-09T00:31:45.019Z,0
2024-05-09T00:32:57.524Z,0
2024-05-09T00:33:44.643Z,0
2024-05-09T00:34:44.453Z,0
2024-05-09T00:35:44.468Z,0
2024-05-09T00:36:44.520Z,0
2024-05-09T00:37:45.181Z,0
2024-05-09T00:38:44.493Z,0
2024-05-09T00:40:44.553Z,0
2024-05-09T00:41:44.600Z,0
2024-05-09T00:42:44.873Z,0
2024-05-09T00:43:44.617Z,0
2024-05-09T00:44:44.427Z,0
2024-05-09T00:45:44.575Z,0
2024-05-09T00:46:44.522Z,0
2024-05-09T00:47:45.411Z,0
2024-05-09T00:48:44.553Z,0
2024-05-09T00:49:44.582Z,0
2024-05-09T00:50:44.777Z,0
2024-05-09T00:51:45.354Z,0
2024-05-09T00:52:44.598Z,0
2024-05-09T00:53:44.611Z,0
2024-05-09T00:54:45.001Z,0
2024-05-09T00:55:44.763Z,0
2024-05-09T00:56:43.526Z,0
2024-05-09T00:57:44.286Z,0
2024-05-09T00:58:45.392Z,0
2024-05-09T00:59:45.809Z,0
2024-05-09T01:00:44.878Z,0
2024-05-09T01:01:45.077Z,0
2024-05-09T01:02:58.624Z,0
2024-05-09T01:03:50.944Z,0
2024-05-09T01:04:44.740Z,0
2024-05-09T01:05:44.555Z,0
2024-05-09T01:06:44.458Z,0
2024-05-09T01:07:44.572Z,0
2024-05-09T01:08:44.502Z,0
2024-05-09T01:10:46.134Z,0
2024-05-09T01:11:44.573Z,0
2024-05-09T01:12:44.727Z,0
2024-05-09T01:13:44.555Z,0
2024-05-09T01:14:44.495Z,0
2024-05-09T01:15:45.860Z,0
2024-05-09T01:16:44.565Z,0
2024-05-09T01:17:45.074Z,0
2024-05-09T01:18:44.562Z,0
2024-05-09T01:19:48.052Z,0
2024-05-09T01:20:45.519Z,0
2024-05-09T01:21:45.159Z,0
2024-05-09T01:22:44.919Z,0
2024-05-09T01:23:44.594Z,0
2024-05-09T01:24:44.439Z,0
2024-05-09T01:25:46.395Z,0
2024-05-09T01:26:44.075Z,0
2024-05-09T01:27:43.509Z,0
2024-05-09T01:28:45.489Z,0
2024-05-09T01:29:44.487Z,0
2024-05-09T01:30:44.509Z,0
2024-05-09T01:31:44.702Z,0
2024-05-09T01:32:44.761Z,0
2024-05-09T01:33:45.502Z,0
2024-05-09T01:34:44.783Z,0
2024-05-09T01:35:45.170Z,0
2024-05-09T01:36:44.438Z,0
2024-05-09T01:37:44.491Z,0
2024-05-09T01:38:45.170Z,0
2024-05-09T01:39:44.533Z,0
2024-05-09T01:40:44.739Z,0
2024-05-09T01:41:44.436Z,0
2024-05-09T01:42:44.448Z,0
2024-05-09T01:44:44.453Z,0
2024-05-09T01:45:45.188Z,0
2024-05-09T01:46:44.482Z,0
2024-05-09T01:47:44.685Z,0
2024-05-09T01:48:44.537Z,0
2024-05-09T01:49:44.515Z,0
2024-05-09T01:50:44.509Z,0
2024-05-09T01:51:44.443Z,0
2024-05-09T01:52:44.944Z,0
2024-05-09T01:53:45.330Z,0
2024-05-09T01:54:44.433Z,0
2024-05-09T01:55:44.794Z,0
2024-05-09T01:56:43.983Z,0
2024-05-09T01:57:43.509Z,0
2024-05-09T01:58:44.469Z,0
2024-05-09T01:59:44.430Z,0
2024-05-09T02:00:44.505Z,0
2024-05-09T02:01:56.319Z,0
2024-05-09T02:02:44.631Z,0
2024-05-09T02:03:44.603Z,0
2024-05-09T02:04:44.559Z,0
2024-05-09T02:05:45.742Z,0
2024-05-09T02:06:46.449Z,0
2024-05-09T02:07:44.476Z,0
2024-05-09T02:08:44.474Z,0
2024-05-09T02:09:44.466Z,0
2024-05-09T02:10:44.856Z,0
2024-05-09T02:11:45.390Z,0
2024-05-09T02:13:44.472Z,0
2024-05-09T02:14:44.866Z,0
2024-05-09T02:15:44.923Z,0
2024-05-09T02:16:44.520Z,0
2024-05-09T02:17:44.844Z,0
2024-05-09T02:18:44.552Z,0
2024-05-09T02:19:44.451Z,0
2024-05-09T02:20:44.562Z,0
2024-05-09T02:21:44.773Z,0
2024-05-09T02:22:44.478Z,0
2024-05-09T02:23:44.498Z,0
2024-05-09T02:24:45.138Z,0
2024-05-09T02:25:44.548Z,0
2024-05-09T02:26:43.511Z,0
2024-05-09T02:27:43.508Z,0
2024-05-09T02:28:44.539Z,0
2024-05-09T02:29:44.436Z,0
2024-05-09T02:30:44.462Z,0
2024-05-09T02:31:44.869Z,0
2024-05-09T02:32:44.579Z,0
2024-05-09T02:33:45.350Z,0
2024-05-09T02:34:44.460Z,0
2024-05-09T02:35:44.767Z,0
2024-05-09T02:36:44.558Z,0
2024-05-09T02:37:44.840Z,0
2024-05-09T02:38:44.499Z,0
2024-05-09T02:39:44.453Z,0
2024-05-09T02:40:44.471Z,0
2024-05-09T02:41:44.633Z,0
2024-05-09T02:42:45.005Z,0
2024-05-09T02:44:44.445Z,0
2024-05-09T02:45:44.461Z,0
2024-05-09T02:46:44.881Z,0
2024-05-09T02:47:45.472Z,0
2024-05-09T02:48:44.535Z,0
2024-05-09T02:49:44.489Z,0
2024-05-09T02:50:44.928Z,0
2024-05-09T02:51:45.031Z,0
2024-05-09T02:52:44.583Z,0
2024-05-09T02:53:44.466Z,0
2024-05-09T02:54:44.516Z,0
2024-05-09T02:55:44.558Z,0
2024-05-09T02:56:43.513Z,0
2024-05-09T02:57:43.534Z,0
2024-05-09T02:58:44.900Z,0
2024-05-09T02:59:44.494Z,0
2024-05-09T03:00:44.605Z,0
2024-05-09T03:01:44.640Z,0
2024-05-09T03:02:45.120Z,0
2024-05-09T03:04:45.097Z,0
2024-05-09T03:05:45.237Z,0
2024-05-09T03:06:45.366Z,0
2024-05-09T03:07:44.493Z,0
2024-05-09T03:08:44.594Z,0
2024-05-09T03:09:44.474Z,0
2024-05-09T03:10:44.526Z,0
2024-05-09T03:11:44.559Z,0
2024-05-09T03:12:44.511Z,0
2024-05-09T03:13:44.473Z,0
2024-05-09T03:14:44.449Z,0
2024-05-09T03:16:45.398Z,0
2024-05-09T03:17:44.692Z,0
2024-05-09T03:18:44.601Z,0
2024-05-09T03:19:45.546Z,0
2024-05-09T03:20:44.930Z,0
2024-05-09T03:21:44.495Z,0
2024-05-09T03:22:45.081Z,0
2024-05-09T03:23:44.584Z,0
2024-05-09T03:24:44.469Z,0
2024-05-09T03:26:44.118Z,0
2024-05-09T03:27:43.530Z,0
2024-05-09T03:28:44.961Z,0
2024-05-09T03:29:44.456Z,0
2024-05-09T03:30:44.540Z,0
2024-05-09T03:31:44.587Z,0
2024-05-09T03:32:53.700Z,0
2024-05-09T03:33:44.614Z,0
2024-05-09T03:34:45.012Z,0
2024-05-09T03:35:44.461Z,0
2024-05-09T03:36:44.503Z,0
2024-05-09T03:37:44.656Z,0
2024-05-09T03:38:44.491Z,0
2024-05-09T03:39:45.004Z,0
2024-05-09T03:40:44.511Z,0
2024-05-09T03:41:44.522Z,0
2024-05-09T03:42:44.462Z,0
2024-05-09T03:43:44.834Z,0
2024-05-09T03:44:44.460Z,0
2024-05-09T03:45:44.477Z,0
2024-05-09T03:46:45.249Z,0
2024-05-09T03:47:44.713Z,0
2024-05-09T03:48:43.607Z,0
2024-05-09T03:49:44.846Z,0
2024-05-09T03:50:45.075Z,0
2024-05-09T03:51:44.827Z,0
2024-05-09T03:52:44.473Z,0
2024-05-09T03:53:44.721Z,0
2024-05-09T03:55:44.522Z,0
2024-05-09T03:56:43.568Z,0
2024-05-09T03:57:43.876Z,0
2024-05-09T03:58:44.636Z,0
2024-05-09T04:00:45.176Z,0
2024-05-09T04:01:45.372Z,0
2024-05-09T04:02:45.125Z,0
2024-05-09T04:03:44.668Z,0
2024-05-09T04:04:44.948Z,0
2024-05-09T04:05:44.895Z,0
2024-05-09T04:06:44.455Z,0
2024-05-09T04:07:44.516Z,0
2024-05-09T04:08:44.561Z,0
2024-05-09T04:09:45.165Z,0
2024-05-09T04:10:44.500Z,0
2024-05-09T04:11:44.540Z,0
2024-05-09T04:12:44.462Z,0
2024-05-09T04:13:44.646Z,0
2024-05-09T04:14:44.446Z,0
2024-05-09T04:15:44.690Z,0
2024-05-09T04:16:44.506Z,0
2024-05-09T04:17:44.809Z,0
2024-05-09T04:19:45.444Z,0
2024-05-09T04:20:44.514Z,0
2024-05-09T04:21:44.443Z,0
2024-05-09T04:22:44.492Z,0
2024-05-09T04:23:44.793Z,0
2024-05-09T04:24:45.168Z,0
2024-05-09T04:25:45.246Z,0
2024-05-09T04:26:43.668Z,0
2024-05-09T04:27:43.608Z,0
2024-05-09T04:28:45.287Z,0
2024-05-09T04:29:45.165Z,0
2024-05-09T04:30:45.128Z,0
2024-05-09T04:31:50.683Z,0
2024-05-09T04:32:44.722Z,0
2024-05-09T04:33:44.626Z,0
2024-05-09T04:34:45.331Z,0
2024-05-09T04:35:44.988Z,0
2024-05-09T04:36:44.797Z,0
2024-05-09T04:37:44.498Z,0
2024-05-09T04:38:44.666Z,0
2024-05-09T04:39:44.444Z,0
2024-05-09T04:40:44.561Z,0
2024-05-09T04:41:44.478Z,0
2024-05-09T04:42:55.352Z,0
2024-05-09T04:43:44.783Z,0
2024-05-09T04:44:44.487Z,0
2024-05-09T04:45:44.729Z,0
2024-05-09T04:46:45.253Z,0
2024-05-09T04:47:44.644Z,0
2024-05-09T04:48:51.800Z,0
2024-05-09T04:49:44.465Z,0
2024-05-09T04:50:44.491Z,0
2024-05-09T04:51:44.450Z,0
2024-05-09T04:52:45.345Z,0
2024-05-09T04:53:44.798Z,0
2024-05-09T04:54:44.500Z,0
2024-05-09T04:55:45.133Z,0
2024-05-09T04:56:44.134Z,0
2024-05-09T04:57:43.932Z,0
2024-05-09T04:58:44.662Z,0
2024-05-09T04:59:44.458Z,0
2024-05-09T05:00:44.914Z,0
2024-05-09T05:01:45.366Z,0
2024-05-09T05:02:44.961Z,0
2024-05-09T05:03:44.706Z,0
2024-05-09T05:04:44.644Z,0
2024-05-09T05:05:45.612Z,0
2024-05-09T05:06:44.451Z,0
2024-05-09T05:07:44.909Z,0
2024-05-09T05:08:44.488Z,0
2024-05-09T05:09:44.455Z,0
2024-05-09T05:10:48.904Z,0
2024-05-09T05:11:44.583Z,0
2024-05-09T05:12:45.006Z,0
2024-05-09T05:13:44.529Z,0
2024-05-09T05:14:44.963Z,0
2024-05-09T05:15:44.587Z,0
2024-05-09T05:16:44.948Z,0
2024-05-09T05:17:44.595Z,0
2024-05-09T05:18:45.787Z,0
2024-05-09T05:20:44.648Z,0
2024-05-09T05:21:44.506Z,0
2024-05-09T05:22:44.485Z,0
2024-05-09T05:23:45.155Z,0
2024-05-09T05:24:44.479Z,0
2024-05-09T05:25:44.699Z,0
2024-05-09T05:26:43.614Z,0
2024-05-09T05:28:44.975Z,0
2024-05-09T05:29:44.998Z,0
2024-05-09T05:30:45.044Z,0
2024-05-09T05:31:44.626Z,0
2024-05-09T05:32:44.604Z,0
2024-05-09T05:33:44.931Z,0
2024-05-09T05:34:45.271Z,0
2024-05-09T05:35:44.605Z,0
2024-05-09T05:36:44.552Z,0
2024-05-09T05:37:45.281Z,0
2024-05-09T05:38:45.081Z,0
2024-05-09T05:39:45.073Z,0
2024-05-09T05:40:44.803Z,0
2024-05-09T05:41:44.885Z,0
2024-05-09T05:42:44.550Z,0
2024-05-09T05:43:44.914Z,0
2024-05-09T05:44:44.458Z,0
2024-05-09T05:45:44.458Z,0
2024-05-09T05:46:44.710Z,0
2024-05-09T05:47:45.012Z,0
2024-05-09T05:48:45.128Z,0
2024-05-09T05:49:45.125Z,0
2024-05-09T05:50:44.538Z,0
2024-05-09T05:51:44.452Z,0
2024-05-09T05:52:44.519Z,0
2024-05-09T05:53:44.562Z,0
2024-05-09T05:54:44.458Z,0
2024-05-09T05:55:44.610Z,0
2024-05-09T05:56:44.442Z,0
2024-05-09T05:57:43.553Z,0
2024-05-09T05:58:45.256Z,0
2024-05-09T05:59:45.203Z,0
2024-05-09T06:00:44.680Z,0
2024-05-09T06:01:44.498Z,0
2024-05-09T06:02:45.408Z,0
2024-05-09T06:03:44.700Z,0
2024-05-09T06:04:45.400Z,0
2024-05-09T06:05:44.917Z,0
2024-05-09T06:06:44.999Z,0
2024-05-09T06:07:45.145Z,0
2024-05-09T06:08:44.603Z,0
2024-05-09T06:09:47.396Z,0
2024-05-09T06:10:44.995Z,0
2024-05-09T06:11:44.601Z,0
2024-05-09T06:12:45.472Z,0
2024-05-09T06:13:44.516Z,0
2024-05-09T06:14:45.214Z,0
2024-05-09T06:15:44.463Z,0
2024-05-09T06:16:44.552Z,0
2024-05-09T06:17:44.820Z,0
2024-05-09T06:18:44.564Z,0
2024-05-09T06:19:45.289Z,0
2024-05-09T06:20:44.682Z,0
2024-05-09T06:21:44.909Z,0
2024-05-09T06:22:44.491Z,0
2024-05-09T06:23:45.167Z,0
2024-05-09T06:24:44.478Z,0
2024-05-09T06:25:44.495Z,0
2024-05-09T06:26:43.709Z,0
2024-05-09T06:27:44.166Z,0
2024-05-09T06:28:44.826Z,0
2024-05-09T06:29:44.462Z,0
2024-05-09T06:30:44.779Z,0
2024-05-09T06:31:44.994Z,0
2024-05-09T06:32:44.603Z,0
2024-05-09T06:33:44.549Z,0
2024-05-09T06:34:44.651Z,0
2024-05-09T06:35:45.502Z,0
2024-05-09T06:36:44.879Z,0
2024-05-09T06:37:44.623Z,0
2024-05-09T06:38:44.566Z,0
2024-05-09T06:39:45.234Z,0
2024-05-09T06:40:44.924Z,0
2024-05-09T06:41:44.605Z,0
2024-05-09T06:42:45.072Z,0
2024-05-09T06:44:44.481Z,0
2024-05-09T06:45:44.921Z,0
2024-05-09T06:46:44.501Z,0
2024-05-09T06:47:44.611Z,0
2024-05-09T06:48:44.828Z,0
2024-05-09T06:49:44.689Z,0
2024-05-09T06:50:44.940Z,0
2024-05-09T06:51:44.468Z,0
2024-05-09T06:52:44.756Z,0
2024-05-09T06:53:45.071Z,0
2024-05-09T06:54:44.674Z,0
2024-05-09T06:55:44.677Z,0
2024-05-09T06:56:43.930Z,0
2024-05-09T06:57:44.154Z,0
2024-05-09T06:58:45.168Z,0
2024-05-09T06:59:45.009Z,0
2024-05-09T07:00:44.498Z,0
2024-05-09T07:02:45.055Z,0
2024-05-09T07:03:44.855Z,0
2024-05-09T07:04:44.607Z,0
2024-05-09T07:06:44.461Z,0
2024-05-09T07:07:44.487Z,0
2024-05-09T07:08:44.516Z,0
2024-05-09T07:09:45.203Z,0
2024-05-09T07:10:44.750Z,0
2024-05-09T07:11:44.596Z,0
2024-05-09T07:12:45.013Z,0
2024-05-09T07:13:45.021Z,0
2024-05-09T07:14:44.543Z,0
2024-05-09T07:15:44.484Z,0
2024-05-09T07:16:44.545Z,0
2024-05-09T07:18:44.713Z,0
2024-05-09T07:19:44.513Z,0
2024-05-09T07:20:44.616Z,0
2024-05-09T07:21:44.461Z,0
2024-05-09T07:22:44.466Z,0
2024-05-09T07:23:46.910Z,0
2024-05-09T07:24:44.547Z,0
2024-05-09T07:25:48.057Z,0
2024-05-09T07:26:45.266Z,0
2024-05-09T07:27:45.095Z,0
2024-05-09T07:28:45.065Z,0
2024-05-09T07:29:44.532Z,0
2024-05-09T07:30:44.593Z,0
2024-05-09T07:31:44.484Z,0
2024-05-09T07:32:44.833Z,0
2024-05-09T07:33:44.571Z,0
2024-05-09T07:34:44.479Z,0
2024-05-09T07:35:45.005Z,0
2024-05-09T07:36:44.486Z,0
2024-05-09T07:37:45.298Z,0
2024-05-09T07:38:44.552Z,0
2024-05-09T07:39:44.822Z,0
2024-05-09T07:40:44.508Z,0
2024-05-09T07:41:45.347Z,0
2024-05-09T07:42:44.835Z,0
2024-05-09T07:43:45.238Z,0
2024-05-09T07:44:44.934Z,0
2024-05-09T07:45:51.648Z,0
2024-05-09T07:47:48.449Z,0
2024-05-09T07:48:58.001Z,0
2024-05-09T07:53:16.873Z,0
2024-05-09T07:53:34.405Z,0
2024-05-09T07:53:48.905Z,0
2024-05-09T07:54:44.912Z,0
2024-05-09T07:55:44.629Z,0
2024-05-09T07:56:44.217Z,0
2024-05-09T07:57:43.564Z,0
2024-05-09T07:58:44.478Z,0
2024-05-09T07:59:44.474Z,0
2024-05-09T08:00:45.262Z,0
2024-05-09T08:01:44.648Z,0
2024-05-09T08:02:45.159Z,0
2024-05-09T08:03:44.680Z,0
2024-05-09T08:04:44.604Z,0
2024-05-09T08:05:44.541Z,0
2024-05-09T08:06:44.517Z,0
2024-05-09T08:07:44.485Z,0
2024-05-09T08:08:44.797Z,0
2024-05-09T08:09:44.519Z,0
2024-05-09T08:10:44.974Z,0
2024-05-09T08:11:44.521Z,0
2024-05-09T08:13:44.744Z,0
2024-05-09T08:14:45.099Z,0
2024-05-09T08:15:44.581Z,0
2024-05-09T08:16:44.502Z,0
2024-05-09T08:17:50.047Z,0
2024-05-09T08:18:44.743Z,0
2024-05-09T08:20:45.058Z,0
2024-05-09T08:21:45.004Z,0
2024-05-09T08:22:44.513Z,0
2024-05-09T08:23:44.497Z,0
2024-05-09T08:24:44.978Z,0
2024-05-09T08:25:44.523Z,0
2024-05-09T08:26:43.677Z,0
2024-05-09T08:27:44.319Z,0
2024-05-09T08:28:44.543Z,0
2024-05-09T08:29:44.546Z,0
2024-05-09T08:30:45.028Z,0
2024-05-09T08:31:45.363Z,0
2024-05-09T08:32:44.612Z,0
2024-05-09T08:33:45.628Z,0
2024-05-09T08:34:44.731Z,0
2024-05-09T08:35:44.507Z,0
2024-05-09T08:36:44.535Z,0
2024-05-09T08:37:44.548Z,0
2024-05-09T08:39:12.412Z,0
2024-05-09T08:39:44.561Z,0
2024-05-09T08:40:44.694Z,0
2024-05-09T08:41:44.809Z,0
2024-05-09T08:42:44.688Z,0
2024-05-09T08:43:44.779Z,0
2024-05-09T08:45:45.455Z,0
2024-05-09T08:46:44.511Z,0
2024-05-09T08:47:51.390Z,0
2024-05-09T08:48:44.797Z,0
2024-05-09T08:49:44.762Z,0
2024-05-09T08:50:45.830Z,0
2024-05-09T08:51:44.897Z,0
2024-05-09T08:52:44.473Z,0
2024-05-09T08:53:44.492Z,0
2024-05-09T08:54:45.203Z,0
2024-05-09T08:55:44.855Z,0
2024-05-09T08:56:43.563Z,0
2024-05-09T08:58:53.628Z,0
2024-05-09T08:59:45.154Z,0
2024-05-09T09:00:45.201Z,0
2024-05-09T09:01:44.690Z,0
2024-05-09T09:02:44.841Z,0
2024-05-09T09:03:45.299Z,0
2024-05-09T09:04:44.618Z,0
2024-05-09T09:05:44.577Z,0
2024-05-09T09:06:44.659Z,0
2024-05-09T09:07:44.482Z,0
2024-05-09T09:08:44.477Z,0
2024-05-09T09:09:44.557Z,0
2024-05-09T09:10:44.662Z,0
2024-05-09T09:11:44.509Z,0
2024-05-09T09:12:44.767Z,0
2024-05-09T09:13:44.500Z,0
2024-05-09T09:14:45.113Z,0
2024-05-09T09:15:44.533Z,0
2024-05-09T09:16:45.381Z,0
2024-05-09T09:17:45.160Z,0
2024-05-09T09:18:45.004Z,0
2024-05-09T09:19:44.540Z,0
2024-05-09T09:20:45.578Z,0
2024-05-09T09:22:07.442Z,0
2024-05-09T09:22:45.042Z,0
2024-05-09T09:23:44.795Z,0
2024-05-09T09:24:45.100Z,0
2024-05-09T09:25:44.512Z,0
2024-05-09T09:26:44.205Z,0
2024-05-09T09:27:43.572Z,0
2024-05-09T09:28:44.534Z,0
2024-05-09T09:29:44.545Z,0
2024-05-09T09:30:44.901Z,0
2024-05-09T09:31:44.522Z,0
2024-05-09T09:32:45.094Z,0
2024-05-09T09:33:44.694Z,0
2024-05-09T09:34:44.515Z,0
2024-05-09T09:35:45.339Z,0
2024-05-09T09:36:44.728Z,0
2024-05-09T09:37:44.731Z,0.2
2024-05-09T09:38:44.635Z,0.6
2024-05-09T09:39:48.814Z,0.6
2024-05-09T09:40:49.103Z,1.1
2024-05-09T09:41:44.485Z,1.3
2024-05-09T09:42:52.338Z,1.8
2024-05-09T09:44:47.925Z,3
2024-05-09T09:45:44.538Z,3
2024-05-09T09:46:44.968Z,2.5
2024-05-09T09:47:44.971Z,2.4
2024-05-09T09:48:44.683Z,1.7
2024-05-09T09:49:44.835Z,2.4
2024-05-09T09:50:44.510Z,0.7
2024-05-09T09:51:44.570Z,0.8
2024-05-09T09:52:44.505Z,1.4
2024-05-09T09:53:45.126Z,3.4
2024-05-09T09:54:45.122Z,2.8
2024-05-09T09:55:44.684Z,4.9
2024-05-09T09:56:44.205Z,4.4
2024-05-09T09:57:43.725Z,5.7
2024-05-09T09:59:44.493Z,5.3
2024-05-09T10:00:44.947Z,6.1
2024-05-09T10:02:45.175Z,7.1
2024-05-09T10:03:44.743Z,6.6
2024-05-09T10:04:44.676Z,6.5
2024-05-09T10:05:47.086Z,7.4
2024-05-09T10:06:48.716Z,8.6
2024-05-09T10:08:44.518Z,6.6
2024-05-09T10:09:44.555Z,8.1
2024-05-09T10:10:44.787Z,9.5
2024-05-09T10:11:49.210Z,9.4
2024-05-09T10:13:44.944Z,8.2
2024-05-09T10:14:44.775Z,7.2
2024-05-09T10:15:44.961Z,8.7
2024-05-09T10:16:44.856Z,8
2024-05-09T10:17:45.179Z,9.2
2024-05-09T10:18:45.518Z,9.2
2024-05-09T10:19:45.309Z,10.2
2024-05-09T10:20:44.673Z,9.4
2024-05-09T10:21:45.141Z,10.3
2024-05-09T10:22:44.511Z,10.3
2024-05-09T10:23:43.568Z,11
2024-05-09T10:24:44.518Z,11
2024-05-09T10:25:44.554Z,10.4
2024-05-09T10:26:44.513Z,9.9
2024-05-09T10:27:43.938Z,9.2
2024-05-09T10:28:44.526Z,7.5
2024-05-09T10:29:44.545Z,8.3
2024-05-09T10:30:45.697Z,8.5
2024-05-09T10:31:48.591Z,8.2
2024-05-09T10:33:44.604Z,9
2024-05-09T10:34:44.703Z,9
2024-05-09T10:35:44.844Z,9.6
2024-05-09T10:36:44.800Z,8.4
2024-05-09T10:37:45.520Z,7.1
2024-05-09T10:38:44.506Z,8.1
2024-05-09T10:39:45.154Z,8.5
2024-05-09T10:40:45.020Z,6.9
2024-05-09T10:41:44.525Z,10.6
2024-05-09T10:42:45.357Z,11.4
2024-05-09T10:43:45.459Z,10.8
2024-05-09T10:44:44.506Z,10.1
2024-05-09T10:45:45.026Z,9
2024-05-09T10:46:44.568Z,9.2
2024-05-09T10:47:44.603Z,11.2
2024-05-09T10:48:44.848Z,11.2
2024-05-09T10:50:44.556Z,11
2024-05-09T10:51:44.591Z,11.6
2024-05-09T10:52:45.299Z,11.9
2024-05-09T10:53:44.837Z,11.5
2024-05-09T10:55:44.511Z,11.6
2024-05-09T10:56:43.584Z,11.3
2024-05-09T10:57:43.627Z,12.1
2024-05-09T10:58:44.670Z,11.9
2024-05-09T10:59:44.533Z,11.7
2024-05-09T11:00:44.674Z,12.1
2024-05-09T11:01:45.129Z,12.2
2024-05-09T11:02:45.206Z,11.3
2024-05-09T11:03:44.855Z,11.8
2024-05-09T11:04:44.757Z,12.2
2024-05-09T11:05:44.792Z,12.2
2024-05-09T11:06:44.994Z,11.7
2024-05-09T11:07:44.522Z,11.7
2024-05-09T11:08:44.519Z,12.2
2024-05-09T11:09:44.611Z,11.8
2024-05-09T11:10:45.546Z,11.1
2024-05-09T11:11:44.611Z,11.8
2024-05-09T11:12:45.332Z,11.7
2024-05-09T11:13:45.084Z,12.7
2024-05-09T11:14:44.512Z,12.8
2024-05-09T11:15:44.874Z,12.8
2024-05-09T11:16:44.521Z,12.1
2024-05-09T11:17:45.460Z,12.1
2024-05-09T11:18:45.214Z,11.7
2024-05-09T11:19:45.508Z,11.6
2024-05-09T11:21:44.539Z,11.8
2024-05-09T11:22:45.008Z,11.6
2024-05-09T11:23:44.533Z,12.6
2024-05-09T11:24:44.985Z,12
2024-05-09T11:26:43.724Z,11.7
2024-05-09T11:27:44.248Z,11.2
2024-05-09T11:28:44.525Z,11.6
2024-05-09T11:29:44.518Z,11.6
2024-05-09T11:30:44.572Z,11.6
2024-05-09T11:31:44.868Z,11.4
2024-05-09T11:32:45.305Z,11.6
2024-05-09T11:33:45.350Z,11.7
2024-05-09T11:34:44.633Z,11.5
2024-05-09T11:35:45.771Z,11.6
2024-05-09T11:37:45.205Z,11.8
2024-05-09T11:38:44.554Z,12
2024-05-09T11:39:45.401Z,11.7
2024-05-09T11:40:44.618Z,11.6
2024-05-09T11:41:44.556Z,11.9
2024-05-09T11:43:44.532Z,12
2024-05-09T11:44:49.131Z,10.9
2024-05-09T11:45:44.551Z,10.2
2024-05-09T11:46:44.526Z,11
2024-05-09T11:47:44.841Z,12.3
2024-05-09T11:48:45.000Z,12.2
2024-05-09T11:49:44.670Z,11.8
2024-05-09T11:50:44.607Z,11.4
2024-05-09T11:51:45.427Z,10.8
2024-05-09T11:52:44.541Z,10.6
2024-05-09T11:53:44.850Z,10
2024-05-09T11:54:44.823Z,11.4
2024-05-09T11:55:44.538Z,12
2024-05-09T11:56:44.699Z,12.2
2024-05-09T11:57:43.863Z,12
2024-05-09T11:58:43.613Z,12.4
2024-05-09T11:59:44.529Z,12.5
2024-05-09T12:00:44.768Z,11.9
2024-05-09T12:01:45.106Z,12
2024-05-09T12:02:45.066Z,12
2024-05-09T12:03:44.768Z,12.1
2024-05-09T12:04:45.489Z,12.2
2024-05-09T12:05:44.724Z,12
2024-05-09T12:06:44.608Z,12.4
2024-05-09T12:07:45.500Z,12.4
2024-05-09T12:09:44.613Z,11.8
2024-05-09T12:10:45.075Z,12.1
2024-05-09T12:11:45.213Z,11.9
2024-05-09T12:12:45.510Z,11.5
2024-05-09T12:13:44.536Z,11.7
2024-05-09T12:14:45.831Z,11.6
2024-05-09T12:15:44.653Z,11.7
2024-05-09T12:16:45.245Z,11.6
2024-05-09T12:17:46.196Z,11.4
2024-05-09T12:18:44.681Z,11.6
2024-05-09T12:19:44.693Z,11.7
2024-05-09T12:20:44.576Z,11.9
2024-05-09T12:21:44.608Z,11.2
2024-05-09T12:22:44.562Z,11.4
2024-05-09T12:23:44.654Z,11.4
2024-05-09T12:24:44.583Z,11.3
2024-05-09T12:25:44.529Z,11.2
2024-05-09T12:26:58.261Z,11.4
2024-05-09T12:27:44.111Z,11.2
2024-05-09T12:28:44.898Z,11
2024-05-09T12:29:44.596Z,11.2
2024-05-09T12:30:44.607Z,10.9
2024-05-09T12:31:44.570Z,10.6
2024-05-09T12:32:45.336Z,10.5
2024-05-09T12:33:45.404Z,10.9
2024-05-09T12:34:44.664Z,11
2024-05-09T12:35:47.334Z,11.1
2024-05-09T12:36:44.596Z,10.7
2024-05-09T12:37:44.594Z,10.7
2024-05-09T12:38:44.740Z,10.4
2024-05-09T12:39:45.033Z,10.8
2024-05-09T12:40:44.858Z,11.1
2024-05-09T12:41:44.631Z,11.1
2024-05-09T12:43:44.568Z,11.6
2024-05-09T12:44:45.047Z,11.4
2024-05-09T12:45:45.557Z,11.4
2024-05-09T12:46:44.718Z,10.9
2024-05-09T12:47:44.794Z,11.5
2024-05-09T12:48:44.729Z,11.2
2024-05-09T12:49:45.674Z,11.6
2024-05-09T12:51:44.601Z,11.8
2024-05-09T12:52:46.864Z,11.8
2024-05-09T12:53:45.266Z,12.2
2024-05-09T12:54:45.311Z,12.3
2024-05-09T12:55:53.010Z,12.2
2024-05-09T12:56:43.848Z,12
2024-05-09T12:57:44.194Z,12.7
2024-05-09T12:58:44.873Z,12.6
2024-05-09T13:00:44.841Z,11.7
2024-05-09T13:01:45.127Z,11.4
2024-05-09T13:02:45.884Z,12.4
2024-05-09T13:03:44.810Z,12.6
2024-05-09T13:04:46.452Z,12.1
2024-05-09T13:05:45.487Z,11.6
2024-05-09T13:06:44.683Z,11.5
2024-05-09T13:07:45.112Z,11.5
2024-05-09T13:08:44.584Z,11.7
2024-05-09T13:09:44.687Z,11.5
2024-05-09T13:10:44.835Z,11.2
2024-05-09T13:11:44.651Z,11.2
2024-05-09T13:12:44.606Z,11.3
2024-05-09T13:13:44.718Z,11.3
2024-05-09T13:14:44.592Z,11.2
2024-05-09T13:15:45.002Z,11.3
2024-05-09T13:16:45.017Z,11.6
2024-05-09T13:17:44.708Z,11.5
2024-05-09T13:18:44.692Z,12.3
2024-05-09T13:19:44.555Z,12.3
2024-05-09T13:20:45.287Z,12.1
2024-05-09T13:21:44.634Z,11.9
2024-05-09T13:22:45.100Z,11.9
2024-05-09T13:23:44.677Z,12.3
2024-05-09T13:24:45.532Z,11.8
2024-05-09T13:25:44.631Z,12
2024-05-09T13:26:43.645Z,11.9
2024-05-09T13:27:43.700Z,12.1
2024-05-09T13:28:44.556Z,11.8
2024-05-09T13:29:44.882Z,12.1
2024-05-09T13:30:45.103Z,11.9
2024-05-09T13:31:50.656Z,12.1
2024-05-09T13:32:44.650Z,11.8
2024-05-09T13:33:44.771Z,11.9
2024-05-09T13:34:45.020Z,11.6
2024-05-09T13:35:48.723Z,11.2
2024-05-09T13:36:44.628Z,11.2
2024-05-09T13:37:44.926Z,11.5
2024-05-09T13:38:44.707Z,11.6
2024-05-09T13:39:44.844Z,11.4
2024-05-09T13:40:44.968Z,11.8
2024-05-09T13:41:44.641Z,11.5
2024-05-09T13:42:46.397Z,11.8
2024-05-09T13:43:44.871Z,11.9
2024-05-09T13:44:44.948Z,12.3
2024-05-09T13:45:44.668Z,11.7
2024-05-09T13:46:44.590Z,12
2024-05-09T13:47:44.726Z,12.6
2024-05-09T13:48:45.318Z,12.7
2024-05-09T13:49:58.691Z,12.4
2024-05-09T13:50:44.567Z,12.4
2024-05-09T13:51:44.623Z,12.9
2024-05-09T13:52:44.782Z,12.8
2024-05-09T13:53:44.586Z,12.8
2024-05-09T13:54:44.929Z,13.1
2024-05-09T13:55:44.827Z,13
2024-05-09T13:56:44.565Z,12.8
2024-05-09T13:57:43.921Z,12.6
2024-05-09T13:58:45.177Z,12.6
2024-05-09T13:59:44.985Z,12.6
2024-05-09T14:00:48.593Z,12.5
2024-05-09T14:01:44.719Z,12.7
2024-05-09T14:02:44.963Z,12.6
2024-05-09T14:03:44.798Z,13.2
2024-05-09T14:04:45.360Z,13
2024-05-09T14:05:44.757Z,13
2024-05-09T14:06:44.626Z,12.8
2024-05-09T14:07:44.574Z,13
2024-05-09T14:08:44.979Z,12.7
2024-05-09T14:09:44.611Z,12.2
2024-05-09T14:10:45.161Z,12.8
2024-05-09T14:11:44.747Z,13.2
2024-05-09T14:12:44.673Z,12.8
2024-05-09T14:13:44.584Z,12.9
2024-05-09T14:14:45.140Z,12.6
2024-05-09T14:15:44.624Z,12.6
2024-05-09T14:16:45.066Z,12.5
2024-05-09T14:17:44.664Z,12.5
2024-05-09T14:18:45.176Z,12.2
2024-05-09T14:19:44.575Z,11.9
2024-05-09T14:20:44.582Z,12.2
2024-05-09T14:21:45.043Z,12.2
2024-05-09T14:22:44.563Z,11.6
2024-05-09T14:23:44.579Z,11.4
2024-05-09T14:24:44.886Z,11.8
2024-05-09T14:25:46.549Z,12.6
2024-05-09T14:26:43.665Z,11.9
2024-05-09T14:27:43.706Z,12.1
2024-05-09T14:28:45.133Z,12.5
2024-05-09T14:29:44.588Z,12.6
2024-05-09T14:30:44.704Z,12
2024-05-09T14:31:44.644Z,11.9
2024-05-09T14:32:44.739Z,12.2
2024-05-09T14:33:44.834Z,12.1
2024-05-09T14:34:44.762Z,12
2024-05-09T14:35:45.309Z,12.2
2024-05-09T14:36:44.614Z,12.1
2024-05-09T14:37:44.953Z,12.5
2024-05-09T14:38:45.433Z,12.2
2024-05-09T14:39:45.663Z,12.1
2024-05-09T14:40:45.095Z,12
2024-05-09T14:41:44.586Z,12.1
2024-05-09T14:42:44.939Z,12.2
2024-05-09T14:43:44.851Z,11.9
2024-05-09T14:44:44.575Z,12.1
2024-05-09T14:45:44.687Z,11.9
2024-05-09T14:46:44.656Z,12.1
2024-05-09T14:47:45.234Z,12.2
2024-05-09T14:48:51.950Z,12
2024-05-09T14:49:44.961Z,12.3
2024-05-09T14:50:44.589Z,12.6
2024-05-09T14:51:44.870Z,12.4
2024-05-09T14:52:44.594Z,12.4
2024-05-09T14:53:44.655Z,12.2
2024-05-09T14:54:45.543Z,12.5
2024-05-09T14:55:44.747Z,12.4
2024-05-09T14:56:43.925Z,12.2
2024-05-09T14:57:44.236Z,12.3